Time;durP1;ratioP1;P1;durP2;ratioP2;P2;SDS_P1;SDS_P2;PMS_P1;PMS_P2;Temp;Humidity;BMP_temperature;BMP_pressure;BME280_temperature;BME280_humidity;BME280_pressure;Samples;Min_cycle;Max_cycle;Signal;HPM_P1;HPM_P2
2022/08/21 00:00:57;;;;;;;0.00;0.00;;;;;;;19.47;100.00;97561.34;4858320;29;20041;-83
2022/08/21 00:03:24;;;;;;;0.00;0.00;;;;;;;19.45;100.00;97568.69;4859692;29;20045;-83
2022/08/21 00:05:53;;;;;;;0.00;0.00;;;;;;;19.44;100.00;97566.16;4858017;29;20046;-83
2022/08/21 00:08:22;;;;;;;0.00;0.00;;;;;;;19.41;100.00;97561.13;4858488;29;20156;-83
2022/08/21 00:10:50;;;;;;;0.00;0.00;;;;;;;19.42;100.00;97568.19;4859489;29;20105;-83
2022/08/21 00:13:19;;;;;;;0.00;0.00;;;;;;;19.44;100.00;97561.69;4858316;29;20056;-83
2022/08/21 00:15:47;;;;;;;0.00;0.00;;;;;;;19.43;100.00;97562.69;4855877;29;20055;-83
2022/08/21 00:18:15;;;;;;;0.00;0.00;;;;;;;19.48;100.00;97559.50;4858878;29;20070;-83
2022/08/21 00:20:44;;;;;;;0.00;0.00;;;;;;;19.47;100.00;97555.16;4856739;29;20049;-84
2022/08/21 00:23:14;;;;;;;0.00;0.00;;;;;;;19.52;100.00;97559.00;4856687;29;20069;-84
2022/08/21 00:25:43;;;;;;;0.00;0.00;;;;;;;19.51;100.00;97561.84;4858323;29;20049;-85
2022/08/21 00:28:11;;;;;;;0.00;0.00;;;;;;;19.50;100.00;97566.38;4858716;29;20047;-85
2022/08/21 00:30:39;;;;;;;0.00;0.00;;;;;;;19.45;100.00;97568.69;4857936;29;20057;-84
2022/08/21 00:33:08;;;;;;;0.00;0.00;;;;;;;19.46;100.00;97567.66;4858771;29;20077;-84
2022/08/21 00:35:39;;;;;;;0.00;0.00;;;;;;;19.48;100.00;97568.34;4857801;29;20045;-84
2022/08/21 00:38:08;;;;;;;0.00;0.00;;;;;;;19.47;100.00;97556.00;4857535;29;20081;-85
2022/08/21 00:40:43;;;;;;;0.00;0.00;;;;;;;19.48;100.00;97555.00;4857961;29;20050;-84
2022/08/21 00:43:12;;;;;;;0.00;0.00;;;;;;;19.48;100.00;97554.16;4858243;29;20496;-84
2022/08/21 00:45:41;;;;;;;0.00;0.00;;;;;;;19.48;100.00;97549.66;4856275;29;20067;-84
2022/08/21 00:48:08;;;;;;;0.00;0.00;;;;;;;19.46;100.00;97546.31;4859319;29;20136;-85
2022/08/21 00:50:40;;;;;;;0.00;0.00;;;;;;;19.37;100.00;97541.94;4855416;29;20563;-84
2022/08/21 00:53:10;;;;;;;0.00;0.00;;;;;;;19.32;100.00;97548.78;4864911;29;20041;-84
2022/08/21 00:55:40;;;;;;;0.00;0.00;;;;;;;19.24;100.00;97533.59;4863438;29;20406;-85
2022/08/21 00:58:10;;;;;;;0.00;0.00;;;;;;;19.24;100.00;97533.59;4857899;29;20088;-85
2022/08/21 01:00:40;;;;;;;0.00;0.00;;;;;;;19.18;100.00;97531.59;4857593;29;20063;-85
2022/08/21 01:03:11;;;;;;;0.00;0.00;;;;;;;19.18;100.00;97528.09;4857884;29;20049;-85
2022/08/21 01:05:39;;;;;;;0.00;0.00;;;;;;;19.18;100.00;97525.41;4856834;29;20132;-84
2022/08/21 01:08:08;;;;;;;0.00;0.00;;;;;;;19.21;100.00;97530.41;4858082;29;20049;-84
2022/08/21 01:10:36;;;;;;;0.00;0.00;;;;;;;19.21;100.00;97527.75;4860128;29;20137;-84
2022/08/21 01:13:08;;;;;;;0.00;0.00;;;;;;;19.15;100.00;97531.06;4857683;29;20053;-84
2022/08/21 01:15:39;;;;;;;0.00;0.00;;;;;;;19.12;100.00;97531.41;4857981;29;20059;-84
2022/08/21 01:18:10;;;;;;;0.00;0.00;;;;;;;19.08;100.00;97517.56;4859565;29;20053;-84
2022/08/21 01:20:39;;;;;;;0.00;0.00;;;;;;;19.08;100.00;97514.06;4858018;29;20196;-83
2022/08/21 01:23:08;;;;;;;0.00;0.00;;;;;;;19.08;100.00;97512.22;4858335;29;20042;-84
2022/08/21 01:25:36;;;;;;;0.00;0.00;;;;;;;19.11;100.00;97511.91;4858321;29;20045;-85
2022/08/21 01:28:10;;;;;;;0.00;0.00;;;;;;;19.15;100.00;97507.06;4858129;29;20054;-83
2022/08/21 01:30:38;;;;;;;0.00;0.00;;;;;;;19.21;100.00;97511.75;4856346;29;20093;-84
2022/08/21 01:33:06;;;;;;;0.00;0.00;;;;;;;19.30;100.00;97508.94;4859061;29;20045;-84
2022/08/21 01:35:33;;;;;;;0.00;0.00;;;;;;;19.40;100.00;97514.94;4859100;29;20566;-84
2022/08/21 01:38:01;;;;;;;0.00;0.00;;;;;;;19.43;100.00;97512.00;4858889;29;20045;-84
2022/08/21 01:40:29;;;;;;;0.00;0.00;;;;;;;19.40;100.00;97506.94;4859122;29;20053;-84
2022/08/21 01:42:57;;;;;;;0.00;0.00;;;;;;;19.39;100.00;97510.63;4855128;29;20415;-85
2022/08/21 01:45:24;;;;;;;0.00;0.00;;;;;;;19.31;100.00;97505.25;4859530;29;20064;-84
2022/08/21 01:47:52;;;;;;;0.00;0.00;;;;;;;19.29;100.00;97496.59;4858455;29;20045;-85
2022/08/21 01:50:21;;;;;;;0.00;0.00;;;;;;;19.30;100.00;97494.75;4859081;29;20504;-84
2022/08/21 01:52:49;;;;;;;0.00;0.00;;;;;;;19.24;100.00;97501.56;4859091;29;20120;-83
2022/08/21 01:55:18;;;;;;;0.00;0.00;;;;;;;19.27;100.00;97495.91;4858338;29;20073;-83
2022/08/21 01:57:47;;;;;;;0.00;0.00;;;;;;;19.29;100.00;97491.28;4858618;29;20038;-84
2022/08/21 02:00:19;;;;;;;0.00;0.00;;;;;;;19.24;100.00;97485.56;4855904;29;20414;-84
2022/08/21 02:02:47;;;;;;;0.00;0.00;;;;;;;19.25;100.00;97491.75;4857894;29;20493;-83
2022/08/21 02:05:14;;;;;;;0.00;0.00;;;;;;;19.24;100.00;97485.56;4858271;29;20498;-83
2022/08/21 02:07:45;;;;;;;0.00;0.00;;;;;;;19.24;100.00;97490.91;4859206;29;20045;-84
2022/08/21 02:10:16;;;;;;;0.00;0.00;;;;;;;19.16;100.00;97480.25;4859715;29;20120;-84
2022/08/21 02:12:46;;;;;;;0.00;0.00;;;;;;;19.08;100.00;97474.91;4865139;29;20048;-85
2022/08/21 02:15:14;;;;;;;0.00;0.00;;;;;;;18.97;100.00;97471.69;4864708;29;20050;-83
2022/08/21 02:17:43;;;;;;;0.00;0.00;;;;;;;18.90;100.00;97471.53;4864256;29;20037;-83
2022/08/21 02:20:13;;;;;;;0.00;0.00;;;;;;;18.89;100.00;97469.03;4864400;29;20077;-83
2022/08/21 02:22:40;;;;;;;0.00;0.00;;;;;;;18.85;100.00;97471.19;4865167;29;20069;-84
2022/08/21 02:25:08;;;;;;;0.00;0.00;;;;;;;18.84;100.00;97471.34;4864027;29;20552;-85
2022/08/21 02:27:41;;;;;;;0.00;0.00;;;;;;;18.82;100.00;97468.84;4864642;29;20045;-83
2022/08/21 02:30:11;;;;;;;;;;;;;;;18.84;100.00;97458.03;4864960;29;20132;-85
2022/08/21 02:32:39;;;;;;;0.00;0.00;;;;;;;18.72;100.00;97457.50;4865073;29;19928;-85
2022/08/21 02:35:09;;;;;;;0.00;0.00;;;;;;;18.69;100.00;97457.00;4864658;29;20491;-83
2022/08/21 02:37:44;;;;;;;0.00;0.00;;;;;;;18.71;100.00;97458.50;4864536;29;20128;-84
2022/08/21 02:40:12;;;;;;;0.00;0.00;;;;;;;18.74;100.00;97460.00;4864122;29;20050;-86
2022/08/21 02:42:40;;;;;;;0.00;0.00;;;;;;;18.77;100.00;97467.66;4864503;29;20061;-85
2022/08/21 02:45:10;;;;;;;0.00;0.00;;;;;;;18.75;100.00;97467.84;4864643;29;20049;-83
2022/08/21 02:47:38;;;;;;;0.00;0.00;;;;;;;18.74;100.00;97471.50;4865189;29;20502;-85
2022/08/21 02:50:08;;;;;;;0.00;0.00;;;;;;;18.70;100.00;97479.97;4864010;29;20069;-85
2022/08/21 02:52:36;;;;;;;0.00;0.00;;;;;;;18.64;100.00;97480.63;4863285;29;20497;-84
2022/08/21 02:55:05;;;;;;;0.00;0.00;;;;;;;18.62;100.00;97482.59;4862303;29;20053;-84
2022/08/21 02:57:32;;;;;;;0.00;0.00;;;;;;;18.64;100.00;97473.47;4863923;29;20046;-84
2022/08/21 03:00:00;;;;;;;0.00;0.00;;;;;;;18.68;100.00;97476.66;4864123;29;20049;-85
2022/08/21 03:02:30;;;;;;;0.00;0.00;;;;;;;18.75;100.00;97464.34;4863875;29;20045;-84
2022/08/21 03:04:58;;;;;;;0.00;0.00;;;;;;;18.72;100.00;97457.50;4866625;29;20056;-84
2022/08/21 03:07:25;;;;;;;0.00;0.00;;;;;;;18.81;100.00;97461.00;4863759;29;20492;-84
2022/08/21 03:09:53;;;;;;;0.00;0.00;;;;;;;18.83;100.00;97467.84;4865101;29;20046;-84
2022/08/21 03:12:20;;;;;;;0.00;0.00;;;;;;;18.80;100.00;97472.69;4865158;29;20057;-85
2022/08/21 03:14:48;;;;;;;0.00;0.00;;;;;;;18.76;100.00;97477.47;4864011;29;20049;-85
2022/08/21 03:17:16;;;;;;;0.00;0.00;;;;;;;18.76;100.00;97479.34;4863147;29;20042;-84
2022/08/21 03:19:44;;;;;;;0.00;0.00;;;;;;;18.73;100.00;97485.00;4866119;29;20128;-84
2022/08/21 03:22:12;;;;;;;0.00;0.00;;;;;;;18.79;100.00;97479.03;4862084;29;20140;-86
2022/08/21 03:24:39;;;;;;;0.00;0.00;;;;;;;18.84;100.00;97477.53;4860899;29;20061;-84
2022/08/21 03:27:07;;;;;;;0.00;0.00;;;;;;;18.89;100.00;97475.19;4860877;29;20038;-84
2022/08/21 03:29:34;;;;;;;0.00;0.00;;;;;;;18.90;100.00;97473.38;4860969;29;20038;-83
2022/08/21 03:32:02;;;;;;;0.00;0.00;;;;;;;18.90;100.00;97479.53;4860455;29;20037;-83
2022/08/21 03:34:29;;;;;;;0.00;0.00;;;;;;;18.92;100.00;97482.03;4859876;29;20142;-83
2022/08/21 03:36:58;;;;;;;0.00;0.00;;;;;;;18.87;100.00;97477.19;4865140;29;20104;-83
2022/08/21 03:39:25;;;;;;;0.00;0.00;;;;;;;18.94;100.00;97486.19;4860103;29;20072;-84
2022/08/21 03:41:53;;;;;;;0.00;0.00;;;;;;;19.02;100.00;97482.72;4856640;29;20531;-84
2022/08/21 03:44:21;;;;;;;0.00;0.00;;;;;;;19.07;100.00;97486.56;4860825;29;20037;-85
2022/08/21 03:46:48;;;;;;;0.00;0.00;;;;;;;19.04;100.00;97481.56;4860373;29;20056;-86
2022/08/21 03:49:16;;;;;;;0.00;0.00;;;;;;;19.00;100.00;97490.03;4860450;29;20044;-85
2022/08/21 03:51:43;;;;;;;0.00;0.00;;;;;;;19.01;100.00;97500.53;4860148;29;20042;-85
2022/08/21 03:54:12;;;;;;;0.00;0.00;;;;;;;19.13;100.00;97499.22;4860214;29;20492;-83
2022/08/21 03:56:40;;;;;;;0.00;0.00;;;;;;;19.17;100.00;97499.75;4862761;29;20102;-83
2022/08/21 03:59:07;;;;;;;0.00;0.00;;;;;;;19.22;100.00;97506.25;4860853;29;20149;-85
2022/08/21 04:01:35;;;;;;;0.00;0.00;;;;;;;19.22;100.00;97511.59;4859393;29;20041;-83
2022/08/21 04:04:03;;;;;;;0.00;0.00;;;;;;;19.17;100.00;97516.59;5729638;23;20063;-83
2022/08/21 04:06:32;;;;;;;0.00;0.00;;;;;;;19.15;100.00;97515.91;4873228;29;20107;-84
2022/08/21 04:09:00;;;;;;;0.00;0.00;;;;;;;19.14;100.00;97513.41;4873031;29;20417;-85
2022/08/21 04:11:29;;;;;;;0.00;0.00;;;;;;;19.14;100.00;97516.91;4886512;29;20494;-84
2022/08/21 04:13:56;;;;;;;0.00;0.00;;;;;;;19.19;100.00;97511.91;4868052;29;20053;-84
2022/08/21 04:16:24;;;;;;;0.00;0.00;;;;;;;19.24;100.00;97511.44;4875502;29;20041;-84
2022/08/21 04:18:51;;;;;;;0.00;0.00;;;;;;;19.21;100.00;97506.41;4877362;29;20111;-84
2022/08/21 04:21:19;;;;;;;0.00;0.00;;;;;;;19.18;100.00;97512.06;4875336;29;20041;-84
2022/08/21 04:23:47;;;;;;;0.00;0.00;;;;;;;19.18;100.00;97504.91;4873585;29;20045;-84
2022/08/21 04:26:14;;;;;;;0.00;0.00;;;;;;;19.16;100.00;97508.75;4873162;29;20073;-84
2022/08/21 04:28:43;;;;;;;0.00;0.00;;;;;;;19.12;100.00;97512.75;4866012;29;20138;-84
2022/08/21 04:31:11;;;;;;;0.00;0.00;;;;;;;19.11;100.00;97513.72;4870900;29;20064;-85
2022/08/21 04:33:38;;;;;;;0.00;0.00;;;;;;;19.17;100.00;97518.41;4872091;29;20045;-84
2022/08/21 04:36:07;;;;;;;0.00;0.00;;;;;;;19.16;100.00;97506.91;4888146;29;20072;-84
2022/08/21 04:38:35;;;;;;;0.00;0.00;;;;;;;19.17;100.00;97508.59;4871251;29;20041;-83
2022/08/21 04:41:02;;;;;;;0.00;0.00;;;;;;;19.19;100.00;97503.06;4873046;29;20045;-84
2022/08/21 04:43:30;;;;;;;0.00;0.00;;;;;;;19.21;100.00;97504.59;4871703;29;20057;-84
2022/08/21 04:46:00;;;;;;;0.00;0.00;;;;;;;19.26;100.00;97494.25;4870920;29;20049;-85
2022/08/21 04:48:28;;;;;;;0.00;0.00;;;;;;;19.39;100.00;97507.97;4873656;29;20124;-84
2022/08/21 04:50:58;;;;;;;0.00;0.00;;;;;;;19.38;100.00;97502.78;4872867;29;20510;-84
2022/08/21 04:53:30;;;;;;;0.00;0.00;;;;;;;19.44;100.00;97504.81;4874720;29;20124;-84
2022/08/21 04:56:01;;;;;;;0.00;0.00;;;;;;;19.43;100.00;97500.47;4875263;29;20055;-84
2022/08/21 04:58:32;;;;;;;0.00;0.00;;;;;;;19.46;100.00;97506.28;4871421;29;20045;-83
2022/08/21 05:01:03;;;;;;;0.00;0.00;;;;;;;19.53;100.00;97495.81;4875635;29;20137;-84
2022/08/21 05:03:34;;;;;;;0.00;0.00;;;;;;;19.60;100.00;97502.16;4874010;29;20041;-84
2022/08/21 05:06:05;;;;;;;0.00;0.00;;;;;;;19.63;100.00;97505.31;4860609;29;20057;-83
2022/08/21 05:08:34;;;;;;;0.00;0.00;;;;;;;19.71;100.00;97504.50;4863688;29;20152;-83
2022/08/21 05:11:01;;;;;;;0.00;0.00;;;;;;;19.79;100.00;97507.97;4868397;29;20042;-83
2022/08/21 05:13:29;;;;;;;0.00;0.00;;;;;;;19.85;100.00;97509.97;4877226;29;20486;-84
2022/08/21 05:15:57;;;;;;;0.00;0.00;;;;;;;19.92;100.00;97524.31;4865902;29;20069;-83
2022/08/21 05:18:26;;;;;;;0.00;0.00;;;;;;;20.01;100.00;97523.28;4869984;29;20045;-82
2022/08/21 05:20:53;;;;;;;0.00;0.00;;;;;;;20.11;100.00;97529.28;4872668;29;20586;-81
2022/08/21 05:23:21;;;;;;;0.00;0.00;;;;;;;20.15;100.00;97529.78;4876156;29;20506;-82
2022/08/21 05:25:48;;;;;;;0.00;0.00;;;;;;;20.23;100.00;97532.47;4866339;29;20053;-83
2022/08/21 05:28:16;;;;;;;0.00;0.00;;;;;;;20.30;100.00;97528.94;4865695;29;20052;-84
2022/08/21 05:30:44;;;;;;;0.00;0.00;;;;;;;20.34;100.00;97526.78;4870214;29;20475;-83
2022/08/21 05:33:11;;;;;;;0.00;0.00;;;;;;;20.40;100.00;97539.44;4869846;29;20057;-84
2022/08/21 05:35:40;;;;;;;0.00;0.00;;;;;;;20.50;100.00;97526.72;4873280;29;20091;-85
2022/08/21 05:38:08;;;;;;;0.00;0.00;;;;;;;20.58;100.00;97526.69;4881668;29;20051;-82
2022/08/21 05:40:36;;;;;;;0.00;0.00;;;;;;;20.71;100.00;97524.31;4869925;29;20041;-84
2022/08/21 05:43:04;;;;;;;0.00;0.00;;;;;;;20.77;100.00;97522.78;4864879;29;20507;-80
2022/08/21 05:45:33;;;;;;;0.00;0.00;;;;;;;20.73;100.00;97528.47;4872123;29;20045;-82
2022/08/21 05:48:07;;;;;;;0.00;0.00;;;;;;;20.87;100.00;97516.19;4871221;29;20447;-83
2022/08/21 05:50:35;;;;;;;0.00;0.00;;;;;;;21.02;100.00;97525.16;4875765;29;20056;-84
2022/08/21 05:53:04;;;;;;;0.00;0.00;;;;;;;21.12;100.00;97528.47;4867597;29;20487;-82
2022/08/21 05:55:31;;;;;;;0.00;0.00;;;;;;;21.21;100.00;97526.59;4872885;29;20109;-82
2022/08/21 05:57:59;;;;;;;0.00;0.00;;;;;;;21.26;100.00;97532.22;4874338;29;20424;-83
2022/08/21 06:00:27;;;;;;;0.00;0.00;;;;;;;21.35;100.00;97539.19;4871820;29;20041;-84
2022/08/21 06:02:54;;;;;;;0.00;0.00;;;;;;;21.37;100.00;97530.00;4871436;29;20052;-81
2022/08/21 06:05:22;;;;;;;0.00;0.00;;;;;;;21.34;100.00;97533.00;4865475;29;20072;-81
2022/08/21 06:07:50;;;;;;;0.00;0.00;;;;;;;21.45;100.00;97526.41;4867642;29;20048;-82
2022/08/21 06:10:19;;;;;;;0.00;0.00;;;;;;;21.57;100.00;97533.84;4873065;29;20048;-83
2022/08/21 06:12:46;;;;;;;0.00;0.00;;;;;;;21.68;100.00;97529.94;4870220;29;20037;-81
2022/08/21 06:15:14;;;;;;;0.00;0.00;;;;;;;21.78;100.00;97522.50;4867790;29;20092;-81
2022/08/21 06:17:41;;;;;;;0.00;0.00;;;;;;;21.91;100.00;97522.72;4873261;29;20133;-80
2022/08/21 06:20:10;;;;;;;0.00;0.00;;;;;;;22.04;100.00;97517.56;4869916;29;20057;-82
2022/08/21 06:22:37;;;;;;;0.00;0.00;;;;;;;22.21;100.00;97521.75;4866593;29;20047;-81
2022/08/21 06:25:06;;;;;;;0.00;0.00;;;;;;;22.41;100.00;97513.03;4871440;29;20533;-82
2022/08/21 06:27:35;;;;;;;0.00;0.00;;;;;;;22.56;100.00;97504.97;4874275;29;20128;-81
2022/08/21 06:30:02;;;;;;;0.00;0.00;;;;;;;22.64;100.00;97513.75;4871377;29;20398;-82
2022/08/21 06:32:30;;;;;;;0.00;0.00;;;;;;;22.73;100.00;97514.50;4872854;29;20048;-80
2022/08/21 06:34:58;;;;;;;0.00;0.00;;;;;;;22.74;100.00;97516.16;4874371;29;20452;-81
2022/08/21 06:37:25;;;;;;;0.00;0.00;;;;;;;22.84;100.00;97514.00;4874493;29;20068;-81
2022/08/21 06:39:53;;;;;;;0.00;0.00;;;;;;;23.03;100.00;97511.63;4873403;29;20122;-81
2022/08/21 06:42:20;;;;;;;0.00;0.00;;;;;;;23.13;100.00;97509.44;4873189;29;20053;-82
2022/08/21 06:44:50;;;;;;;0.00;0.00;;;;;;;23.25;98.54;97516.00;4873408;29;20092;-81
2022/08/21 06:47:17;;;;;;;0.00;0.00;;;;;;;23.34;98.05;97514.03;4871703;29;20049;-81
2022/08/21 06:49:45;;;;;;;0.00;0.00;;;;;;;23.42;97.56;97519.28;4873621;29;20133;-81
2022/08/21 06:52:14;;;;;;;0.00;0.00;;;;;;;23.45;97.58;97519.69;4869443;29;20045;-81
2022/08/21 06:54:41;;;;;;;0.00;0.00;;;;;;;23.50;97.09;97524.50;4868186;29;20045;-81
2022/08/21 06:57:09;;;;;;;0.00;0.00;;;;;;;23.12;95.90;97528.44;4865768;29;20049;-80
2022/08/21 06:59:36;;;;;;;0.00;0.00;;;;;;;22.99;97.54;97528.25;4872599;29;20124;-80
2022/08/21 07:02:05;;;;;;;0.00;0.00;;;;;;;22.80;97.83;97529.63;4866213;29;20136;-81
2022/08/21 07:04:33;;;;;;;0.00;0.00;;;;;;;23.02;97.92;97531.38;4870568;29;20144;-82
2022/08/21 07:07:01;;;;;;;0.00;0.00;;;;;;;23.16;97.42;97530.53;4867085;29;20049;-81
2022/08/21 07:09:28;;;;;;;0.00;0.00;;;;;;;23.41;96.22;97525.63;4870997;29;20144;-81
2022/08/21 07:11:57;;;;;;;0.00;0.00;;;;;;;23.62;95.35;97522.97;4866878;29;20065;-81
2022/08/21 07:14:25;;;;;;;0.00;0.00;;;;;;;23.68;93.81;97519.56;4874189;29;20051;-81
2022/08/21 07:16:52;;;;;;;0.00;0.00;;;;;;;23.45;94.25;97527.75;4881312;29;20076;-81
2022/08/21 07:19:21;;;;;;;0.00;0.00;;;;;;;23.66;93.99;97526.97;4880014;29;20097;-81
2022/08/21 07:21:49;;;;;;;0.00;0.00;;;;;;;23.89;92.92;97516.81;4882405;29;20049;-81
2022/08/21 07:24:16;;;;;;;0.00;0.00;;;;;;;24.08;92.45;97518.03;4871907;29;20096;-81
2022/08/21 07:26:44;;;;;;;0.00;0.00;;;;;;;23.97;92.21;97532.00;4876419;29;20060;-81
2022/08/21 07:29:12;;;;;;;0.00;0.00;;;;;;;23.84;93.08;97526.50;4876091;29;20152;-81
2022/08/21 07:31:39;;;;;;;0.00;0.00;;;;;;;23.72;93.50;97539.63;4869864;29;20045;-81
2022/08/21 07:34:08;;;;;;;0.00;0.00;;;;;;;23.65;93.43;97544.09;4872297;29;20089;-82
2022/08/21 07:36:36;;;;;;;0.00;0.00;;;;;;;23.67;93.46;97541.22;4872819;29;20473;-81
2022/08/21 07:39:04;;;;;;;0.00;0.00;;;;;;;23.55;93.90;97538.19;4871347;29;20050;-81
2022/08/21 07:41:34;;;;;;;0.00;0.00;;;;;;;23.39;94.82;97550.00;4870153;29;20065;-81
2022/08/21 07:44:01;;;;;;;0.00;0.00;;;;;;;23.36;95.82;97547.72;4870199;29;20053;-81
2022/08/21 07:46:29;;;;;;;0.00;0.00;;;;;;;23.51;95.93;97534.22;4870630;29;20049;-82
2022/08/21 07:48:56;;;;;;;0.00;0.00;;;;;;;23.60;95.09;97541.16;4871661;29;20048;-82
2022/08/21 07:51:27;;;;;;;0.00;0.00;;;;;;;23.81;95.10;97534.97;4871367;29;20124;-82
2022/08/21 07:53:58;;;;;;;0.00;0.00;;;;;;;23.89;93.48;97542.88;4872403;29;20135;-81
2022/08/21 07:56:26;;;;;;;0.00;0.00;;;;;;;23.77;93.90;97534.50;4872374;29;20558;-82
2022/08/21 07:58:53;;;;;;;0.00;0.00;;;;;;;23.58;94.59;97537.81;4871258;29;20049;-81
2022/08/21 08:01:21;;;;;;;0.00;0.00;;;;;;;23.53;95.46;97540.25;4872443;29;20059;-81
2022/08/21 08:03:49;;;;;;;0.00;0.00;;;;;;;23.44;96.33;97542.22;4871056;29;20045;-81
2022/08/21 08:06:18;;;;;;;0.00;0.00;;;;;;;23.19;96.45;97553.47;4872883;29;20078;-80
2022/08/21 08:08:47;;;;;;;0.00;0.00;;;;;;;22.89;98.73;97541.09;4869784;29;20615;-81
2022/08/21 08:11:16;;;;;;;0.00;0.00;;;;;;;22.73;99.18;97542.16;4872374;29;20123;-82
2022/08/21 08:13:46;;;;;;;0.00;0.00;;;;;;;22.72;100.00;97539.66;4873353;29;20041;-82
2022/08/21 08:16:15;;;;;;;0.00;0.00;;;;;;;22.67;100.00;97542.88;4873561;29;20094;-82
2022/08/21 08:18:44;;;;;;;0.00;0.00;;;;;;;22.52;100.00;97539.38;4872617;29;20048;-82
2022/08/21 08:21:18;;;;;;;0.00;0.00;;;;;;;22.41;100.00;97539.00;4869323;29;20055;-80
2022/08/21 08:23:46;;;;;;;0.00;0.00;;;;;;;22.20;100.00;97542.34;4871267;29;20048;-81
2022/08/21 08:26:15;;;;;;;0.00;0.00;;;;;;;22.15;100.00;97542.09;4873458;29;20042;-82
2022/08/21 08:28:43;;;;;;;0.00;0.00;;;;;;;22.26;100.00;97548.84;4874571;29;20038;-82
2022/08/21 08:31:10;;;;;;;0.00;0.00;;;;;;;22.24;100.00;97545.53;4871272;29;20487;-82
2022/08/21 08:33:39;;;;;;;0.00;0.00;;;;;;;22.05;100.00;97544.19;4872917;29;20049;-81
2022/08/21 08:36:13;;;;;;;0.00;0.00;;;;;;;21.94;100.00;97539.25;4868555;29;20136;-81
2022/08/21 08:38:41;;;;;;;0.00;0.00;;;;;;;21.94;100.00;97538.41;4875806;29;20053;-81
2022/08/21 08:41:13;;;;;;;0.00;0.00;;;;;;;21.94;100.00;97538.41;4878275;29;20045;-82
2022/08/21 08:43:43;;;;;;;;;;;;;;;21.99;100.00;97536.84;4867567;29;20507;-81
2022/08/21 08:46:15;;;;;;;0.00;0.00;;;;;;;21.96;100.00;97536.41;4880187;29;19935;-82
2022/08/21 08:48:51;;;;;;;0.00;0.00;;;;;;;22.07;100.00;97533.28;4879434;29;20045;-82
2022/08/21 08:51:23;;;;;;;0.00;0.00;;;;;;;22.14;100.00;97540.44;4875334;29;20056;-82
2022/08/21 08:53:56;;;;;;;0.00;0.00;;;;;;;22.33;100.00;97547.13;4874046;29;20052;-82
2022/08/21 08:56:29;;;;;;;0.00;0.00;;;;;;;22.45;100.00;97545.66;4879516;29;20403;-80
2022/08/21 08:59:03;;;;;;;0.00;0.00;;;;;;;22.48;100.00;97540.75;4879505;29;20135;-79
2022/08/21 09:01:30;;;;;;;0.00;0.00;;;;;;;22.46;100.00;97540.09;4879016;29;20415;-79
2022/08/21 09:03:58;;;;;;;0.00;0.00;;;;;;;22.29;100.00;97548.47;4878855;29;20474;-79
2022/08/21 09:06:42;;;;;;;0.00;0.00;;;;;;;22.00;100.00;97543.91;4879341;29;20135;-81
2022/08/21 09:09:23;;;;;;;0.00;0.00;;;;;;;21.90;100.00;97547.81;4878006;29;20045;-79
2022/08/21 09:12:00;;;;;;;0.00;0.00;;;;;;;21.73;100.00;97551.66;4880531;29;20432;-78
2022/08/21 09:14:43;;;;;;;0.00;0.00;;;;;;;21.66;100.00;97548.88;4878875;29;20045;-81
2022/08/21 09:17:23;;;;;;;0.00;0.00;;;;;;;21.59;100.00;97550.56;4878866;29;20063;-81
2022/08/21 09:20:09;;;;;;;0.00;0.00;;;;;;;21.41;100.00;97543.84;4878037;29;20441;-79
2022/08/21 09:22:47;;;;;;;0.00;0.00;;;;;;;21.25;100.00;97539.41;4877019;29;20136;-82
2022/08/21 09:25:22;;;;;;;0.00;0.00;;;;;;;21.21;100.00;97535.44;4872668;29;20041;-82
2022/08/21 09:27:50;;;;;;;0.00;0.00;;;;;;;21.25;100.00;97538.59;4865354;29;20089;-81
2022/08/21 09:30:25;;;;;;;0.00;0.00;;;;;;;21.31;100.00;97532.53;4863313;29;20041;-81
2022/08/21 09:32:52;;;;;;;0.00;0.00;;;;;;;21.42;100.00;97537.47;4866710;29;20418;-80
2022/08/21 09:35:22;;;;;;;0.00;0.00;;;;;;;21.51;100.00;97531.88;4867671;29;20038;-82
2022/08/21 09:37:54;;;;;;;0.00;0.00;;;;;;;21.79;100.00;97525.00;4867084;29;20065;-80
2022/08/21 09:40:31;;;;;;;0.00;0.00;;;;;;;21.81;100.00;97528.34;4871718;29;20490;-78
2022/08/21 09:43:02;;;;;;;0.00;0.00;;;;;;;21.63;100.00;97526.97;4875267;29;20048;-78
2022/08/21 09:45:32;;;;;;;0.00;0.00;;;;;;;21.56;100.00;97526.84;4873114;29;20038;-79
2022/08/21 09:48:10;;;;;;;0.00;0.00;;;;;;;21.54;100.00;97530.72;4867767;29;20042;-81
2022/08/21 09:50:38;;;;;;;0.00;0.00;;;;;;;21.43;100.00;97529.25;4871389;29;20502;-78
2022/08/21 09:53:16;;;;;;;0.00;0.00;;;;;;;21.40;100.00;97526.13;4865288;29;20487;-80
2022/08/21 09:58:37;;;;;;;0.00;0.00;;;;;;;21.40;100.00;97540.31;4836062;29;20045;-81
2022/08/21 10:01:08;;;;;;;0.00;0.00;;;;;;;21.52;100.00;97538.06;4833935;29;20058;-82
2022/08/21 10:03:35;;;;;;;0.00;0.00;;;;;;;21.49;100.00;97533.91;4830849;29;20512;-79
2022/08/21 10:06:08;;;;;;;0.00;0.00;;;;;;;21.63;100.00;97540.34;4831356;29;20064;-77
2022/08/21 10:08:38;;;;;;;0.00;0.00;;;;;;;21.88;100.00;97528.44;4836853;29;20077;-78
2022/08/21 10:11:07;;;;;;;0.00;0.00;;;;;;;22.26;100.00;97528.25;4833518;29;20069;-81
2022/08/21 10:13:49;;;;;;;0.00;0.00;;;;;;;22.50;100.00;97521.81;4835228;29;20046;-81
2022/08/21 10:16:28;;;;;;;0.00;0.00;;;;;;;22.64;100.00;97532.53;4832669;29;20058;-81
2022/08/21 10:19:06;;;;;;;0.00;0.00;;;;;;;22.80;100.00;97535.00;4831834;29;20077;-82
2022/08/21 10:21:41;;;;;;;0.00;0.00;;;;;;;23.12;100.00;97531.94;4836089;29;20053;-78
2022/08/21 10:24:20;;;;;;;0.00;0.00;;;;;;;23.52;98.71;97530.50;4831769;29;20055;-78
2022/08/21 10:26:57;;;;;;;0.00;0.00;;;;;;;23.70;96.36;97530.91;4835665;29;20074;-82
2022/08/21 10:29:40;;;;;;;0.00;0.00;;;;;;;23.80;95.75;97520.69;4828605;29;20504;-78
2022/08/21 10:32:25;;;;;;;0.00;0.00;;;;;;;23.78;95.81;97519.22;4838443;29;20077;-82
2022/08/21 10:35:00;;;;;;;0.00;0.00;;;;;;;23.85;94.61;97517.44;4846860;29;20053;-78
2022/08/21 10:37:50;;;;;;;0.00;0.00;;;;;;;24.11;92.82;97528.41;4881953;29;20457;-78
2022/08/21 10:40:26;;;;;;;0.00;0.00;;;;;;;24.13;92.29;97521.78;4872224;29;20045;-80
2022/08/21 10:43:05;;;;;;;0.00;0.00;;;;;;;24.09;91.75;97525.91;4880269;29;20502;-81
2022/08/21 10:45:47;;;;;;;0.00;0.00;;;;;;;24.07;91.29;97527.13;4872169;29;20532;-80
2022/08/21 10:48:25;;;;;;;0.00;0.00;;;;;;;24.09;91.38;97525.91;4880490;29;20045;-80
2022/08/21 10:51:00;;;;;;;0.00;0.00;;;;;;;24.04;90.15;97527.50;4871278;29;20053;-83
2022/08/21 10:53:42;;;;;;;0.00;0.00;;;;;;;24.21;91.79;97527.03;4881162;29;20041;-80
2022/08/21 10:56:17;;;;;;;0.00;0.00;;;;;;;24.30;91.00;97531.28;4873379;29;20044;-80
2022/08/21 10:58:52;;;;;;;0.00;0.00;;;;;;;24.57;91.57;97530.41;4870566;29;20389;-80
2022/08/21 11:01:27;;;;;;;0.00;0.00;;;;;;;24.56;89.54;97527.91;4866689;29;20045;-79
2022/08/21 11:04:10;;;;;;;0.00;0.00;;;;;;;24.53;90.59;97529.13;4881791;29;20124;-79
2022/08/21 11:06:40;;;;;;;0.00;0.00;;;;;;;24.58;89.43;97526.66;4871217;29;20051;-78
2022/08/21 11:09:14;;;;;;;0.00;0.00;;;;;;;24.46;89.76;97527.41;4864372;29;20079;-81
2022/08/21 11:11:48;;;;;;;0.00;0.00;;;;;;;24.31;89.71;97532.06;4867800;29;20053;-81
2022/08/21 11:14:25;;;;;;;0.00;0.00;;;;;;;24.39;89.19;97530.06;4870105;29;20413;-79
2022/08/21 11:17:01;;;;;;;0.00;0.00;;;;;;;24.28;89.04;97529.75;4866255;29;20494;-82
2022/08/21 11:19:36;;;;;;;0.00;0.00;;;;;;;24.43;89.06;97525.97;4869288;29;20057;-79
2022/08/21 11:22:12;;;;;;;0.00;0.00;;;;;;;24.69;87.57;97531.50;4864404;29;20060;-82
2022/08/21 11:24:45;;;;;;;0.00;0.00;;;;;;;24.65;86.75;97527.53;4876304;29;20495;-81
2022/08/21 11:27:22;;;;;;;0.00;0.00;;;;;;;24.51;88.92;97525.81;4880208;29;20133;-80
2022/08/21 11:29:53;;;;;;;0.00;0.00;;;;;;;24.41;88.11;97527.19;4876144;29;20516;-84
2022/08/21 11:32:46;;;;;;;0.00;0.00;;;;;;;24.16;89.22;97526.78;4871706;29;20045;-80
2022/08/21 11:35:23;;;;;;;;;;;;;;;24.22;89.67;97531.34;4878391;29;20533;-83
2022/08/21 11:38:19;;;;;;;0.00;0.00;;;;;;;24.29;88.37;97523.38;4881278;29;20354;-85
2022/08/21 11:40:59;;;;;;;0.00;0.00;;;;;;;24.31;88.28;97527.53;4881184;29;20037;-84
2022/08/21 11:43:38;;;;;;;0.00;0.00;;;;;;;24.21;87.49;97523.50;4869587;29;20041;-81